createdAt,value
2022-12-15T00:05:38.670Z,-8.63
2022-12-15T00:20:43.696Z,-8.19
2022-12-15T00:35:48.817Z,-8.44
2022-12-15T00:50:53.798Z,-8.38
2022-12-15T01:05:58.774Z,-8.19
2022-12-15T01:21:03.824Z,-8.38
2022-12-15T01:36:08.811Z,-7.82
2022-12-15T01:51:13.886Z,-8.13
2022-12-15T02:06:18.907Z,-8.19
2022-12-15T02:21:23.921Z,-8.19
2022-12-15T02:36:28.967Z,-8.13
2022-12-15T02:51:33.967Z,-8.5
2022-12-15T03:06:37.008Z,-8.25
2022-12-15T03:21:42.034Z,-7.88
2022-12-15T03:36:47.077Z,-7.75
2022-12-15T03:51:52.350Z,-8.38
2022-12-15T04:06:55.096Z,-8.32
2022-12-15T04:22:00.113Z,-8.32
2022-12-15T04:37:05.116Z,-8.25
2022-12-15T04:52:10.165Z,-8.13
2022-12-15T05:07:15.196Z,-7.63
2022-12-15T05:22:20.213Z,-8.13
2022-12-15T05:37:25.237Z,-7.82
2022-12-15T05:52:30.234Z,-7.82
2022-12-15T06:07:35.292Z,-8
2022-12-15T06:22:40.305Z,-8.19
2022-12-15T06:37:45.334Z,-7.75
2022-12-15T06:52:50.419Z,-7.63
2022-12-15T07:07:55.393Z,-7.75
2022-12-15T07:23:00.432Z,-8.07
2022-12-15T07:38:05.456Z,-7.88
2022-12-15T07:53:10.486Z,-7.88
2022-12-15T08:08:15.756Z,-7.5
2022-12-15T08:23:20.507Z,-7.94
2022-12-15T08:38:25.545Z,-7.19
2022-12-15T08:53:31.877Z,-6.88
2022-12-15T09:08:35.549Z,-7
2022-12-15T09:23:38.624Z,-6.25
2022-12-15T09:38:43.735Z,-6.5
2022-12-15T09:53:55.503Z,-6
2022-12-15T10:08:51.649Z,-5.88
2022-12-15T10:23:56.705Z,-5.5
2022-12-15T10:39:01.703Z,-4.88
2022-12-15T10:54:06.724Z,-4.13
2022-12-15T11:09:11.742Z,-3.69
2022-12-15T11:24:16.767Z,-4.13
2022-12-15T11:39:21.811Z,-4.07
2022-12-15T11:54:26.778Z,-3.88
2022-12-15T12:09:31.785Z,-3.57
2022-12-15T12:24:36.811Z,-3.32
2022-12-15T12:39:41.837Z,-3.38
2022-12-15T12:54:46.868Z,-3.13
2022-12-15T13:09:51.890Z,-3
2022-12-15T13:24:56.868Z,-2.75
2022-12-15T13:40:01.879Z,-2.57
2022-12-15T13:55:06.940Z,-2.75
2022-12-15T14:10:11.949Z,-2.88
2022-12-15T14:25:16.988Z,-2.82
2022-12-15T14:40:28.224Z,-3.32
2022-12-15T14:55:26.962Z,-3
2022-12-15T15:10:31.987Z,-3.57
2022-12-15T15:25:39.920Z,-4.69
2022-12-15T15:40:42.010Z,-4.94
2022-12-15T15:55:47.027Z,-5.13
2022-12-15T16:10:52.073Z,-4.63
2022-12-15T16:25:57.113Z,-4.88
2022-12-15T16:41:02.103Z,-5.57
2022-12-15T16:56:07.095Z,-5.82
2022-12-15T17:11:12.167Z,-4.75
2022-12-15T17:26:28.018Z,-6.13
2022-12-15T17:41:50.194Z,-5.94
2022-12-15T17:56:27.187Z,-6.5
2022-12-15T18:11:32.260Z,-6.75
2022-12-15T18:26:37.244Z,-5.63
2022-12-15T18:41:42.260Z,-6.44
2022-12-15T18:56:47.246Z,-7
2022-12-15T19:11:50.315Z,-5.5
2022-12-15T19:26:55.324Z,-6.57
2022-12-15T19:41:58.334Z,-7.19
2022-12-15T19:57:03.352Z,-6.94
2022-12-15T20:12:08.351Z,-6.57
2022-12-15T20:27:13.411Z,-6.38
2022-12-15T20:42:18.414Z,-6.63
2022-12-15T20:57:23.439Z,-6.75
2022-12-15T21:12:28.462Z,-7.32
2022-12-15T21:27:33.501Z,-7.57
2022-12-15T21:42:38.522Z,-7.25
2022-12-15T21:57:43.520Z,-7.25
2022-12-15T22:12:48.557Z,-7.19
2022-12-15T22:27:54.967Z,-7.25
2022-12-15T22:42:58.598Z,-7.82
2022-12-15T22:58:03.631Z,-8.38
2022-12-15T23:13:08.655Z,-7.5
2022-12-15T23:28:13.646Z,-8.07
2022-12-15T23:43:18.690Z,-7.75
2022-12-15T23:58:23.707Z,-8.44
